Time;durP1;ratioP1;P1;durP2;ratioP2;P2;SDS_P1;SDS_P2;PMS_P1;PMS_P2;Temp;Humidity;BMP_temperature;BMP_pressure;BME280_temperature;BME280_humidity;BME280_pressure;Samples;Min_cycle;Max_cycle;Signal;HPM_P1;HPM_P2
2020/12/09 00:01:31;;;;;;;56.70;29.63;;;;;;;0.83;100.00;100399.47;5006621;28;20108;-70
2020/12/09 00:04:00;;;;;;;57.93;28.90;;;;;;;0.80;100.00;100405.50;5013216;28;20037;-70
2020/12/09 00:06:27;;;;;;;60.60;30.43;;;;;;;0.87;100.00;100416.88;5002008;28;20108;-71
2020/12/09 00:08:54;;;;;;;58.30;29.67;;;;;;;0.86;100.00;100414.25;5011729;28;20038;-70
2020/12/09 00:11:20;;;;;;;54.93;30.03;;;;;;;0.87;100.00;100416.00;5008006;28;20496;-71
2020/12/09 00:13:46;;;;;;;61.63;28.40;;;;;;;0.83;100.00;100417.66;5009949;28;20490;-72
2020/12/09 00:16:12;;;;;;;59.80;32.07;;;;;;;0.82;100.00;100418.53;5005984;28;20041;-72
2020/12/09 00:18:38;;;;;;;56.90;30.97;;;;;;;0.82;100.00;100418.53;5012877;28;20038;-71
2020/12/09 00:21:05;;;;;;;55.87;29.87;;;;;;;0.78;100.00;100422.81;5009456;28;20042;-71
2020/12/09 00:23:31;;;;;;;57.67;30.13;;;;;;;0.75;100.00;100411.47;5006504;28;20439;-72
2020/12/09 00:25:57;;;;;;;57.57;28.70;;;;;;;0.73;100.00;100414.06;5114335;22;20568;-67
2020/12/09 00:28:23;;;;;;;55.20;27.67;;;;;;;0.72;100.00;100416.63;5067418;28;20063;-67
2020/12/09 00:30:49;;;;;;;57.83;29.63;;;;;;;0.74;100.00;100407.13;5054040;28;20082;-67
2020/12/09 00:33:15;;;;;;;57.67;29.43;;;;;;;0.70;100.00;100406.22;5039628;28;20046;-67
2020/12/09 00:35:41;;;;;;;53.90;29.07;;;;;;;0.67;100.00;100415.69;5044277;28;20045;-67
2020/12/09 00:38:09;;;;;;;62.27;30.90;;;;;;;0.66;100.00;100414.81;5049078;28;20044;-67
2020/12/09 00:40:35;;;;;;;58.27;29.53;;;;;;;0.64;100.00;100397.44;5044764;28;20049;-67
2020/12/09 00:43:06;;;;;;;54.60;30.17;;;;;;;0.59;100.00;100394.78;5048113;28;20036;-67
2020/12/09 00:45:32;;;;;;;58.93;29.73;;;;;;;0.55;100.00;100387.78;5050702;28;20045;-67
2020/12/09 00:47:59;;;;;;;53.90;28.43;;;;;;;0.52;100.00;100401.63;5053833;28;20126;-67
2020/12/09 00:50:27;;;;;;;55.87;28.37;;;;;;;0.53;100.00;100408.56;5051497;28;20493;-67
2020/12/09 00:52:53;;;;;;;60.23;29.50;;;;;;;0.50;100.00;100421.47;5055169;28;20049;-67
2020/12/09 00:55:20;;;;;;;60.73;31.07;;;;;;;0.46;100.00;100416.22;5049388;28;20037;-67
2020/12/09 00:57:46;;;;;;;48.80;28.13;;;;;;;0.51;100.00;100417.19;5054417;28;20045;-67
2020/12/09 01:00:13;;;;;;;54.17;28.57;;;;;;;0.45;100.00;100425.75;5051774;28;20470;-67
2020/12/09 01:02:40;;;;;;;50.10;27.17;;;;;;;0.44;100.00;100428.31;5040295;28;20046;-68
2020/12/09 01:05:09;;;;;;;54.63;27.73;;;;;;;0.44;100.00;100436.13;5078399;28;20086;-67
2020/12/09 01:07:36;;;;;;;51.97;27.97;;;;;;;0.44;100.00;100434.41;5055006;28;20040;-68
2020/12/09 01:10:05;;;;;;;55.33;27.30;;;;;;;0.42;100.00;100437.78;5050492;28;20110;-68
2020/12/09 01:12:31;;;;;;;54.17;27.10;;;;;;;0.44;100.00;100436.13;5046651;28;20394;-67
2020/12/09 01:14:57;;;;;;;52.93;27.77;;;;;;;0.45;100.00;100441.34;5050781;28;20614;-67
2020/12/09 01:17:23;;;;;;;53.30;27.93;;;;;;;0.41;100.00;100442.13;5032369;28;20414;-67
2020/12/09 01:20:03;;;;;;;48.10;26.70;;;;;;;0.43;100.00;100436.97;5059520;28;20049;-67
2020/12/09 01:22:32;;;;;;;54.53;26.97;;;;;;;0.40;100.00;100429.09;5051518;28;20087;-67
2020/12/09 01:24:58;;;;;;;53.97;26.67;;;;;;;0.44;100.00;100428.31;5046269;28;20115;-67
2020/12/09 01:27:24;;;;;;;52.27;27.13;;;;;;;0.43;100.00;100434.38;5054500;28;20037;-67
2020/12/09 01:29:51;;;;;;;49.40;28.03;;;;;;;0.38;100.00;100436.88;5039926;28;20079;-67
2020/12/09 01:32:18;;;;;;;56.80;27.33;;;;;;;0.39;100.00;100442.97;5033862;28;20086;-67
2020/12/09 01:34:48;;;;;;;51.10;27.37;;;;;;;0.41;100.00;100438.66;5040166;28;20049;-67
2020/12/09 01:37:14;;;;;;;52.70;26.60;;;;;;;0.39;100.00;100435.16;5040100;28;20517;-67
2020/12/09 01:39:41;;;;;;;48.47;26.63;;;;;;;0.41;100.00;100420.47;5035162;28;20036;-67
2020/12/09 01:42:07;;;;;;;53.77;27.23;;;;;;;0.38;100.00;100418.69;5029585;28;20050;-67
2020/12/09 01:44:33;;;;;;;51.47;26.63;;;;;;;0.35;100.00;100412.59;5035923;28;20041;-67
2020/12/09 01:47:04;;;;;;;51.47;26.20;;;;;;;0.36;100.00;100417.81;5031828;28;20033;-67
2020/12/09 01:49:32;;;;;;;49.17;27.27;;;;;;;0.39;100.00;100428.22;5035746;28;20045;-68
2020/12/09 01:52:00;;;;;;;46.17;26.67;;;;;;;0.42;100.00;100430.91;5030937;28;20045;-67
2020/12/09 01:54:26;;;;;;;54.80;29.23;;;;;;;0.38;100.00;100431.69;5043271;28;20098;-67
2020/12/09 01:57:03;;;;;;;48.30;27.57;;;;;;;0.36;100.00;100417.81;5060780;28;20295;-67
2020/12/09 01:59:29;;;;;;;51.63;27.53;;;;;;;0.35;100.00;100423.84;5045744;28;20041;-67
2020/12/09 02:01:55;;;;;;;54.13;28.97;;;;;;;0.35;100.00;100410.84;5049751;28;20033;-67
2020/12/09 02:04:21;;;;;;;49.97;26.93;;;;;;;0.34;100.00;100403.91;5041821;28;20107;-67
2020/12/09 02:06:51;;;;;;;49.13;27.13;;;;;;;0.41;100.00;100415.25;5038541;28;20060;-67
2020/12/09 02:09:19;;;;;;;56.23;28.23;;;;;;;0.34;100.00;100409.13;5052375;28;20336;-67
2020/12/09 02:11:45;;;;;;;48.70;24.93;;;;;;;0.38;100.00;100410.03;5047616;28;20045;-67
2020/12/09 02:14:12;;;;;;;53.40;28.17;;;;;;;0.35;100.00;100420.38;5051216;28;20037;-67
2020/12/09 02:16:38;;;;;;;53.70;29.00;;;;;;;0.33;100.00;100419.44;5049626;28;20064;-67
2020/12/09 02:19:04;;;;;;;52.17;26.67;;;;;;;0.34;100.00;100414.31;5051941;28;20041;-67
2020/12/09 02:21:34;;;;;;;58.43;28.77;;;;;;;0.34;100.00;100416.91;5047998;28;20041;-67
2020/12/09 02:24:01;;;;;;;51.70;26.77;;;;;;;0.34;100.00;100405.59;5053081;28;20041;-67
2020/12/09 02:26:28;;;;;;;49.43;25.20;;;;;;;0.34;100.00;100403.91;5049322;28;20041;-67
2020/12/09 02:28:55;;;;;;;53.60;26.37;;;;;;;0.35;100.00;100402.19;5055885;28;20045;-67
2020/12/09 02:31:22;;;;;;;51.07;28.03;;;;;;;0.33;100.00;100402.13;5044810;28;20087;-67
2020/12/09 02:33:48;;;;;;;51.80;26.90;;;;;;;0.34;100.00;100406.50;5052084;28;20040;-67
2020/12/09 02:36:15;;;;;;;49.80;26.17;;;;;;;0.33;100.00;100396.06;5049565;28;20091;-67
2020/12/09 02:38:41;;;;;;;49.73;26.53;;;;;;;0.35;100.00;100402.19;5051464;28;20091;-67
2020/12/09 02:41:08;;;;;;;49.07;25.97;;;;;;;0.34;100.00;100401.31;5051326;28;20041;-67
2020/12/09 02:43:35;;;;;;;49.97;28.23;;;;;;;0.32;100.00;100395.19;5041122;28;20060;-67
2020/12/09 02:46:02;;;;;;;53.97;28.70;;;;;;;0.33;100.00;100396.94;5050915;28;20048;-67
2020/12/09 02:48:28;;;;;;;46.87;25.60;;;;;;;0.32;100.00;100387.41;5035228;28;20033;-67
2020/12/09 02:50:55;;;;;;;55.27;26.90;;;;;;;0.31;100.00;100390.84;5054072;28;20382;-67
2020/12/09 02:53:22;;;;;;;46.17;25.13;;;;;;;0.32;100.00;100390.00;5045196;28;20501;-67
2020/12/09 02:55:48;;;;;;;49.50;26.40;;;;;;;0.33;100.00;100385.69;5042361;28;20069;-67
2020/12/09 02:58:14;;;;;;;45.63;25.43;;;;;;;0.37;100.00;100392.69;5049946;28;20037;-67
2020/12/09 03:00:40;;;;;;;48.43;26.63;;;;;;;0.38;100.00;100395.31;5051282;28;20563;-67
2020/12/09 03:03:07;;;;;;;50.47;26.60;;;;;;;0.31;100.00;100400.38;5043913;28;20095;-67
2020/12/09 03:05:33;;;;;;;50.43;26.97;;;;;;;0.30;100.00;100393.44;5049701;28;20040;-67
2020/12/09 03:07:59;;;;;;;46.83;27.57;;;;;;;0.29;100.00;100397.75;5067311;28;20185;-67
2020/12/09 03:10:25;;;;;;;48.13;26.27;;;;;;;0.27;100.00;100395.13;5058598;28;20044;-67
2020/12/09 03:12:51;;;;;;;49.10;25.30;;;;;;;0.27;100.00;100399.47;5050795;28;20044;-67
2020/12/09 03:15:17;;;;;;;51.20;26.50;;;;;;;0.28;100.00;100399.47;5049220;28;20033;-67
2020/12/09 03:17:43;;;;;;;47.53;24.50;;;;;;;0.26;100.00;100406.38;5050921;28;20037;-67
2020/12/09 03:20:09;;;;;;;52.77;26.30;;;;;;;0.26;100.00;100401.19;5055561;28;20455;-68
2020/12/09 03:22:36;;;;;;;48.73;27.33;;;;;;;0.27;100.00;100408.13;5050570;28;20045;-67
2020/12/09 03:25:02;;;;;;;48.40;26.00;;;;;;;0.26;100.00;100403.78;5064347;28;20048;-68
2020/12/09 03:27:29;;;;;;;46.37;25.00;;;;;;;0.27;100.00;100396.88;5051514;28;20037;-67
2020/12/09 03:29:55;;;;;;;50.57;26.00;;;;;;;0.30;100.00;100396.91;5055213;28;20045;-68
2020/12/09 03:32:21;;;;;;;46.33;25.70;;;;;;;0.30;100.00;100401.22;5052772;28;20049;-67
2020/12/09 03:34:47;;;;;;;46.07;25.33;;;;;;;0.27;100.00;100400.34;5053375;28;20045;-67
2020/12/09 03:37:13;;;;;;;51.63;25.53;;;;;;;0.27;100.00;100395.13;5053209;28;20613;-68
2020/12/09 03:39:39;;;;;;;54.37;27.60;;;;;;;0.29;100.00;100400.34;5050871;28;20041;-67
2020/12/09 03:42:05;;;;;;;48.67;26.43;;;;;;;0.29;100.00;100410.75;5056298;28;20329;-67
2020/12/09 03:44:31;;;;;;;54.57;26.37;;;;;;;0.31;100.00;100400.38;5054575;28;20036;-67
2020/12/09 03:46:59;;;;;;;53.27;27.70;;;;;;;0.31;100.00;100395.19;5059175;28;20036;-67
2020/12/09 03:49:25;;;;;;;51.23;26.93;;;;;;;0.31;100.00;100395.19;5055365;28;20037;-67
2020/12/09 03:51:52;;;;;;;49.60;26.77;;;;;;;0.30;100.00;100396.03;5059972;28;20037;-67
2020/12/09 03:54:18;;;;;;;57.87;26.93;;;;;;;0.33;100.00;100390.88;5053161;28;20632;-67
2020/12/09 03:56:44;;;;;;;53.60;29.60;;;;;;;0.30;100.00;100394.31;5050397;28;20037;-67
2020/12/09 03:59:10;;;;;;;52.70;26.67;;;;;;;0.28;100.00;100386.50;5060509;28;20106;-68
2020/12/09 04:01:36;;;;;;;54.67;28.33;;;;;;;0.30;100.00;100389.09;5039674;28;20033;-68
2020/12/09 04:04:02;;;;;;;48.33;27.13;;;;;;;0.29;100.00;100395.16;5056280;28;20402;-67
2020/12/09 04:06:29;;;;;;;56.87;27.20;;;;;;;0.29;100.00;100408.16;5053391;28;20033;-67
2020/12/09 04:08:55;;;;;;;52.97;28.27;;;;;;;0.34;100.00;100413.41;5042987;28;20033;-67
2020/12/09 04:11:21;;;;;;;52.43;27.57;;;;;;;0.32;100.00;100409.91;5058328;28;20037;-67
2020/12/09 04:13:47;;;;;;;49.50;28.07;;;;;;;0.32;100.00;100409.91;5053169;28;20048;-67
2020/12/09 04:16:13;;;;;;;53.50;26.97;;;;;;;0.27;100.00;100395.13;5057087;28;20123;-67
2020/12/09 04:18:40;;;;;;;54.87;29.00;;;;;;;0.28;100.00;100401.22;5055308;28;20040;-67
2020/12/09 04:21:06;;;;;;;50.53;27.10;;;;;;;0.28;100.00;100386.50;5053376;28;20041;-67
2020/12/09 04:23:32;;;;;;;59.57;31.90;;;;;;;0.26;100.00;100397.72;5039661;28;20048;-67
2020/12/09 04:25:58;;;;;;;51.03;27.93;;;;;;;0.27;100.00;100408.13;5041372;28;20037;-67
2020/12/09 04:28:24;;;;;;;49.57;26.17;;;;;;;0.30;100.00;100398.63;5058064;28;20542;-67
2020/12/09 04:30:50;;;;;;;53.20;27.37;;;;;;;0.31;100.00;100396.06;5044190;28;20072;-67
2020/12/09 04:33:16;;;;;;;52.03;27.00;;;;;;;0.32;100.00;100404.72;5036467;28;20098;-67
2020/12/09 04:35:42;;;;;;;53.67;28.97;;;;;;;0.32;100.00;100405.59;5053959;28;20063;-67
2020/12/09 04:38:10;;;;;;;49.77;26.67;;;;;;;0.29;100.00;100410.75;5063514;28;20032;-68
2020/12/09 04:40:36;;;;;;;49.90;26.57;;;;;;;0.31;100.00;100419.44;5043754;28;20045;-67
2020/12/09 04:43:03;;;;;;;53.07;28.53;;;;;;;0.31;100.00;100418.56;5036268;28;20041;-67
2020/12/09 04:45:31;;;;;;;57.73;28.73;;;;;;;0.28;100.00;100428.06;5055031;28;20033;-67
2020/12/09 04:48:05;;;;;;;56.60;27.47;;;;;;;0.26;100.00;100416.78;5060445;28;20071;-67
2020/12/09 04:50:34;;;;;;;50.50;27.35;;;;;;;0.30;100.00;100411.63;5044047;28;20037;-68
2020/12/09 04:53:07;;;;;;;54.03;28.57;;;;;;;0.26;100.00;100410.72;5036647;28;20676;-67
2020/12/09 04:55:33;;;;;;;56.77;28.67;;;;;;;0.24;100.00;100414.97;5064362;28;20393;-67
2020/12/09 04:58:11;;;;;;;52.73;27.73;;;;;;;0.24;100.00;100404.59;5057466;28;20044;-68
2020/12/09 05:00:45;;;;;;;54.07;29.40;;;;;;;0.26;100.00;100416.78;5051500;28;20538;-67
2020/12/09 05:03:15;;;;;;;55.45;28.33;;;;;;;0.27;100.00;100408.13;5049374;28;20060;-67
2020/12/09 05:05:41;;;;;;;63.73;30.37;;;;;;;0.24;100.00;100399.38;5078826;28;20444;-67
2020/12/09 05:08:19;;;;;;;53.57;29.23;;;;;;;0.23;100.00;100388.13;5047631;28;20573;-67
2020/12/09 05:10:47;;;;;;;57.80;29.77;;;;;;;0.23;100.00;100405.44;5052097;28;20040;-67
2020/12/09 05:13:25;;;;;;;57.00;27.57;;;;;;;0.24;100.00;100415.84;5031511;28;20049;-67
2020/12/09 05:15:53;;;;;;;54.27;28.07;;;;;;;0.24;100.00;100425.38;5062791;28;20417;-67
2020/12/09 05:18:34;;;;;;;53.10;27.97;;;;;;;0.23;100.00;100431.41;5048852;28;20029;-67
2020/12/09 05:21:16;;;;;;;58.20;30.43;;;;;;;0.21;100.00;100423.59;5062292;28;20041;-68
2020/12/09 05:23:45;;;;;;;59.13;31.60;;;;;;;0.19;100.00;100414.91;5054630;28;20033;-68
2020/12/09 05:26:24;;;;;;;62.90;31.30;;;;;;;0.19;100.00;100422.72;5044267;28;20588;-67
2020/12/09 05:29:03;;;;;;;58.00;30.73;;;;;;;0.18;100.00;100433.09;5059635;28;20064;-67
2020/12/09 05:31:33;;;;;;;56.70;28.57;;;;;;;0.18;100.00;100435.69;5039481;28;20074;-67
2020/12/09 05:33:59;;;;;;;50.57;28.73;;;;;;;0.16;100.00;100429.56;5054956;28;20045;-67
2020/12/09 05:36:27;;;;;;;49.50;26.13;;;;;;;0.16;100.00;100438.22;5057392;28;20091;-67
2020/12/09 05:39:06;;;;;;;62.43;32.40;;;;;;;0.20;100.00;100447.84;5042952;28;20449;-67
2020/12/09 05:41:33;;;;;;;61.43;31.37;;;;;;;0.17;100.00;100442.59;5062866;28;20041;-67
2020/12/09 05:44:00;;;;;;;54.73;29.27;;;;;;;0.16;100.00;100447.75;5068632;28;20087;-67
2020/12/09 05:46:27;;;;;;;62.73;32.00;;;;;;;0.16;100.00;100439.94;5053964;28;20095;-67
2020/12/09 05:48:53;;;;;;;60.40;31.07;;;;;;;0.11;100.00;100447.69;5047571;28;20037;-68
2020/12/09 05:51:19;;;;;;;60.07;31.63;;;;;;;0.16;99.42;100447.75;5046794;28;20095;-68
2020/12/09 05:53:47;;;;;;;63.23;31.60;;;;;;;0.10;100.00;100452.84;5052446;28;20094;-67
2020/12/09 05:56:15;;;;;;;67.43;31.97;;;;;;;0.05;99.38;100446.69;5052457;28;20494;-67
2020/12/09 05:58:48;;;;;;;65.20;33.47;;;;;;;0.08;99.29;100455.38;5062029;28;20045;-67
2020/12/09 06:01:19;;;;;;;58.47;30.83;;;;;;;0.10;98.71;100452.84;5056325;28;20044;-67
2020/12/09 06:03:48;;;;;;;68.10;32.87;;;;;;;0.09;98.89;100461.50;5063114;28;20064;-67
2020/12/09 06:06:24;;;;;;;64.60;32.87;;;;;;;0.04;99.53;100438.00;5068046;28;20489;-67
2020/12/09 06:08:55;;;;;;;67.35;33.28;;;;;;;-0.02;98.87;100451.75;5067000;28;20036;-67
2020/12/09 06:11:26;;;;;;;56.70;31.05;;;;;;;-0.04;99.23;100445.66;5059244;28;20492;-67
2020/12/09 06:13:53;;;;;;;61.70;30.63;;;;;;;-0.03;99.13;100444.81;5068145;28;20239;-67
2020/12/09 06:16:20;;;;;;;57.27;30.40;;;;;;;0.01;99.40;100450.97;5049580;28;20044;-67
2020/12/09 06:18:49;;;;;;;59.03;31.70;;;;;;;-0.05;99.76;100436.13;5068303;28;20374;-67
2020/12/09 06:21:15;;;;;;;63.87;32.07;;;;;;;-0.04;99.62;100437.00;5056313;28;20094;-67
2020/12/09 06:23:42;;;;;;;61.20;29.90;;;;;;;-0.02;99.30;100449.16;5055190;28;20040;-67
2020/12/09 06:26:09;;;;;;;64.63;29.83;;;;;;;-0.04;99.63;100447.38;5053235;28;20041;-68
2020/12/09 06:28:43;;;;;;;61.40;31.93;;;;;;;-0.05;99.25;100449.09;5066466;28;20039;-67
2020/12/09 06:31:20;;;;;;;61.93;31.23;;;;;;;-0.02;99.40;100454.34;5049957;28;20161;-67
2020/12/09 06:33:49;;;;;;;56.87;30.57;;;;;;;-0.07;99.68;100457.72;5066877;28;20382;-67
2020/12/09 06:36:28;;;;;;;60.17;29.27;;;;;;;-0.09;99.64;100457.66;5055475;28;20041;-68
2020/12/09 06:39:04;;;;;;;60.00;30.00;;;;;;;-0.08;100.00;100469.84;5041646;28;20041;-67
2020/12/09 06:41:31;;;;;;;64.30;32.13;;;;;;;-0.02;99.10;100472.53;5062628;28;20040;-67
2020/12/09 06:44:04;;;;;;;67.73;32.63;;;;;;;-0.06;98.92;100464.66;5068529;28;20044;-67
2020/12/09 06:46:35;;;;;;;67.63;31.43;;;;;;;-0.03;99.36;100462.97;5058920;28;20047;-67
2020/12/09 06:49:02;;;;;;;63.03;32.27;;;;;;;-0.07;99.50;100462.91;5053564;28;20114;-67
2020/12/09 06:51:36;;;;;;;65.83;32.37;;;;;;;-0.04;99.34;100465.56;5050083;28;20056;-67
2020/12/09 06:54:13;;;;;;;64.80;31.20;;;;;;;-0.09;99.65;100462.84;5045014;28;20110;-68
2020/12/09 06:56:40;;;;;;;65.20;32.50;;;;;;;-0.07;99.33;100468.97;5039682;28;20041;-67
2020/12/09 06:59:25;;;;;;;60.63;31.10;;;;;;;-0.06;99.08;100462.06;5070251;28;20082;-67
2020/12/09 07:01:59;;;;;;;61.47;31.27;;;;;;;-0.07;99.36;100452.53;5053657;28;20110;-67
2020/12/09 07:04:55;;;;;;;59.05;29.75;;;;;;;-0.10;99.82;100448.13;5069850;28;20090;-67
2020/12/09 07:07:24;;;;;;;;;;;;;;;-0.13;99.50;100461.06;5059406;28;20032;-67
2020/12/09 07:09:51;;;;;;;62.67;31.03;;;;;;;-0.12;99.66;100475.78;5069558;28;19920;-67
2020/12/09 07:12:18;;;;;;;61.07;30.83;;;;;;;-0.15;99.38;100475.75;5069377;28;20040;-67
2020/12/09 07:14:52;;;;;;;62.20;31.93;;;;;;;-0.15;99.68;100483.53;5069752;28;20102;-67
2020/12/09 07:17:20;;;;;;;58.10;29.75;;;;;;;-0.12;99.88;100480.13;5069698;28;20634;-67
2020/12/09 07:19:46;;;;;;;56.73;29.13;;;;;;;-0.15;99.46;100478.34;5070394;28;20060;-68
2020/12/09 07:22:13;;;;;;;53.07;29.77;;;;;;;-0.15;99.63;100474.88;5057649;28;20124;-67
2020/12/09 07:24:39;;;;;;;62.10;30.00;;;;;;;-0.16;100.00;100478.31;5066225;28;20101;-68
2020/12/09 07:27:12;;;;;;;60.53;31.43;;;;;;;-0.12;99.04;100482.72;5060404;28;20052;-67
2020/12/09 07:29:40;;;;;;;58.40;32.50;;;;;;;-0.13;99.69;100480.97;5070408;28;20520;-67
2020/12/09 07:32:07;;;;;;;64.67;31.73;;;;;;;-0.16;99.79;100483.50;5070738;28;20509;-67
2020/12/09 07:34:53;;;;;;;57.40;31.60;;;;;;;-0.15;99.55;100487.84;5065944;28;20032;-67
2020/12/09 07:37:21;;;;;;;57.80;30.30;;;;;;;-0.16;99.60;100494.78;5070589;28;20047;-67
2020/12/09 07:39:49;;;;;;;62.17;31.03;;;;;;;-0.11;99.24;100490.53;5068903;28;20509;-67
2020/12/09 07:42:16;;;;;;;63.73;30.40;;;;;;;-0.10;99.57;100504.38;5069651;28;20033;-67
2020/12/09 07:44:43;;;;;;;54.43;30.27;;;;;;;-0.09;99.83;100503.53;5052263;28;20048;-67
2020/12/09 07:47:10;;;;;;;59.07;32.27;;;;;;;-0.10;99.42;100507.84;5041213;28;20047;-67
2020/12/09 07:49:48;;;;;;;63.73;31.03;;;;;;;-0.07;99.77;100512.25;5069185;28;20045;-67
2020/12/09 07:52:19;;;;;;;59.53;31.00;;;;;;;-0.08;99.34;100502.72;5042703;28;20049;-67
2020/12/09 07:54:45;;;;;;;62.70;30.90;;;;;;;-0.08;99.34;100494.94;5060648;28;20114;-67
2020/12/09 07:57:11;;;;;;;56.17;29.57;;;;;;;-0.06;99.25;100501.03;5059877;28;20032;-67
2020/12/09 07:59:37;;;;;;;59.10;30.43;;;;;;;-0.04;99.23;100501.91;5058327;28;20045;-67
2020/12/09 08:02:19;;;;;;;55.23;29.83;;;;;;;-0.05;99.03;100506.25;5063785;28;20044;-67
2020/12/09 08:05:04;;;;;;;58.63;28.97;;;;;;;-0.05;98.74;100508.84;5035801;28;20366;-67
2020/12/09 08:07:30;;;;;;;;;;;;;;;-0.03;99.51;100512.31;5051063;28;20071;-67
2020/12/09 08:10:08;;;;;;;52.80;27.53;;;;;;;0.05;98.84;100514.22;5065390;28;19921;-67
2020/12/09 08:12:38;;;;;;;57.93;27.73;;;;;;;0.06;99.22;100510.75;5068723;28;20048;-67
2020/12/09 08:15:06;;;;;;;63.90;29.73;;;;;;;0.06;98.91;100510.75;5068330;28;20040;-67
2020/12/09 08:17:32;;;;;;;62.23;29.40;;;;;;;0.09;98.41;100497.84;5068446;28;20094;-68
2020/12/09 08:20:03;;;;;;;56.70;29.80;;;;;;;0.11;98.52;100511.75;5069334;28;20485;-67
2020/12/09 08:22:29;;;;;;;52.13;28.97;;;;;;;0.13;98.87;100523.03;5058335;28;20095;-67
2020/12/09 08:25:07;;;;;;;57.10;29.07;;;;;;;0.15;98.39;100521.31;5065180;28;20386;-68
2020/12/09 08:27:43;;;;;;;58.50;29.47;;;;;;;0.20;98.38;100514.50;5047361;28;20056;-67
2020/12/09 08:30:26;;;;;;;53.13;28.17;;;;;;;0.26;97.50;100523.31;5031510;28;20029;-67
2020/12/09 08:33:04;;;;;;;56.13;29.23;;;;;;;0.26;97.39;100527.63;5063711;28;20044;-67
2020/12/09 08:35:45;;;;;;;58.60;30.73;;;;;;;0.29;97.47;100517.28;5069456;28;20094;-68
2020/12/09 08:38:22;;;;;;;62.10;31.07;;;;;;;0.25;97.14;100518.06;5067830;28;20063;-67
2020/12/09 08:40:53;;;;;;;63.23;32.43;;;;;;;0.24;97.17;100505.91;5068822;28;20090;-67
2020/12/09 08:43:21;;;;;;;56.33;29.83;;;;;;;0.31;97.37;100518.19;5050432;28;20064;-67
2020/12/09 08:45:47;;;;;;;56.50;28.00;;;;;;;0.34;97.04;100510.47;5059531;28;20068;-67
2020/12/09 08:48:15;;;;;;;62.83;31.23;;;;;;;0.34;97.05;100509.56;5062596;28;20642;-68
2020/12/09 08:50:42;;;;;;;56.17;29.87;;;;;;;0.32;97.02;100512.13;5055251;28;20093;-67
2020/12/09 08:53:08;;;;;;;57.37;29.50;;;;;;;0.33;96.61;100523.38;5061075;28;20498;-67
2020/12/09 08:55:34;;;;;;;61.37;30.17;;;;;;;0.30;96.96;100523.34;5060014;28;20037;-67
2020/12/09 08:58:00;;;;;;;57.70;29.23;;;;;;;0.30;97.13;100525.94;5060395;28;20547;-67
2020/12/09 09:00:26;;;;;;;54.43;27.93;;;;;;;0.31;97.85;100517.31;5066869;28;20032;-67
2020/12/09 09:02:55;;;;;;;55.30;28.23;;;;;;;0.28;97.83;100528.53;5065034;28;20036;-67
2020/12/09 09:05:22;;;;;;;62.93;32.00;;;;;;;0.35;97.21;100524.31;5064696;28;20037;-67
2020/12/09 09:07:48;;;;;;;62.17;31.20;;;;;;;0.29;97.90;100519.88;5065357;28;20110;-67
2020/12/09 09:10:14;;;;;;;59.00;29.87;;;;;;;0.26;98.00;100517.22;5068623;28;20053;-67
2020/12/09 09:12:40;;;;;;;60.77;29.90;;;;;;;0.26;97.92;100509.44;5067213;28;20042;-67
2020/12/09 09:15:06;;;;;;;62.67;29.90;;;;;;;0.34;98.24;100509.56;5069037;28;20462;-67
2020/12/09 09:17:33;;;;;;;58.50;32.23;;;;;;;0.40;97.39;100504.47;5068157;28;20044;-67
2020/12/09 09:20:00;;;;;;;60.73;29.03;;;;;;;0.42;97.61;100506.28;5068124;28;20098;-67
2020/12/09 09:22:26;;;;;;;58.57;30.13;;;;;;;0.51;97.53;100508.16;5039048;28;20445;-67
2020/12/09 09:24:52;;;;;;;58.23;29.40;;;;;;;0.50;97.00;100512.44;5064185;28;20044;-67
2020/12/09 09:27:18;;;;;;;57.63;29.67;;;;;;;0.57;97.23;100516.91;5063904;28;20556;-67
2020/12/09 09:29:45;;;;;;;62.67;29.93;;;;;;;0.64;97.04;100522.22;5064137;28;20045;-67
2020/12/09 09:32:12;;;;;;;59.67;30.33;;;;;;;0.71;96.23;100509.38;5066879;28;20420;-67
2020/12/09 09:34:39;;;;;;;63.07;30.50;;;;;;;0.80;96.64;100514.72;5067972;28;20043;-67
2020/12/09 09:37:08;;;;;;;60.33;31.00;;;;;;;0.90;95.44;100518.34;5050655;28;20078;-67
2020/12/09 09:39:34;;;;;;;56.73;28.10;;;;;;;0.87;95.09;100526.09;5053790;28;20045;-67
2020/12/09 09:42:01;;;;;;;59.07;30.70;;;;;;;0.77;94.66;100545.88;5061388;28;20498;-67
2020/12/09 09:44:27;;;;;;;57.67;29.87;;;;;;;0.84;94.84;100526.03;5047152;28;20045;-67
2020/12/09 09:46:56;;;;;;;56.67;28.87;;;;;;;0.89;94.39;100523.53;5040111;28;20106;-67
2020/12/09 09:49:23;;;;;;;54.73;28.67;;;;;;;1.00;94.76;100524.56;5055783;28;20079;-67
2020/12/09 09:51:51;;;;;;;55.97;28.47;;;;;;;1.00;94.58;100537.56;5044739;28;20577;-67
2020/12/09 09:54:18;;;;;;;50.90;27.90;;;;;;;0.99;93.87;100535.81;5065223;28;20048;-67
2020/12/09 09:56:45;;;;;;;58.43;28.17;;;;;;;0.91;93.71;100546.09;5054344;28;20036;-67
2020/12/09 09:59:11;;;;;;;56.93;30.03;;;;;;;0.91;94.54;100547.81;5058068;28;20127;-67
2020/12/09 10:01:37;;;;;;;55.73;28.77;;;;;;;0.90;94.73;100543.47;5065767;28;20048;-67
2020/12/09 10:04:06;;;;;;;59.43;29.10;;;;;;;0.84;94.50;100554.63;5064287;28;20044;-67
2020/12/09 10:06:33;;;;;;;51.73;27.83;;;;;;;0.85;94.82;100556.41;5064597;28;20048;-67
2020/12/09 10:09:00;;;;;;;58.83;30.03;;;;;;;0.81;94.74;100552.00;5049075;28;20048;-67
2020/12/09 10:11:26;;;;;;;61.20;29.57;;;;;;;0.74;95.00;100550.13;5064691;28;20036;-67
2020/12/09 10:13:52;;;;;;;57.30;28.93;;;;;;;0.78;95.37;100541.56;5080887;22;20049;-88
2020/12/09 10:16:24;;;;;;;57.87;29.27;;;;;;;0.79;95.03;100538.09;5013179;28;20049;-88
2020/12/09 10:18:51;;;;;;;55.00;28.23;;;;;;;0.81;94.79;100541.59;5032343;28;20076;-87
2020/12/09 10:21:28;;;;;;;53.70;28.90;;;;;;;0.89;94.97;100544.31;5000347;28;20056;-88
2020/12/09 10:23:55;;;;;;;57.43;28.23;;;;;;;0.98;94.83;100547.06;4997178;28;20045;-88
2020/12/09 10:26:31;;;;;;;54.93;28.57;;;;;;;1.03;93.78;100551.53;5015859;28;20049;-88
2020/12/09 10:29:01;;;;;;;51.13;27.07;;;;;;;1.04;94.17;100545.47;5016695;28;20049;-87
2020/12/09 10:31:35;;;;;;;51.43;26.13;;;;;;;1.09;94.16;100543.81;5001828;28;20046;-88
2020/12/09 10:34:02;;;;;;;49.45;26.60;;;;;;;1.10;94.16;100542.97;5032396;28;20347;-89
2020/12/09 10:36:28;;;;;;;52.67;27.70;;;;;;;1.17;92.89;100545.63;5011712;28;20041;-86
2020/12/09 10:38:55;;;;;;;51.13;27.83;;;;;;;1.03;93.29;100548.91;5011382;28;20406;-89
2020/12/09 10:41:21;;;;;;;55.23;28.17;;;;;;;1.07;93.32;100537.69;5013937;28;20041;-86
2020/12/09 10:43:54;;;;;;;50.17;28.43;;;;;;;1.12;93.37;100538.66;5022659;28;20486;-86
2020/12/09 10:46:21;;;;;;;48.93;27.80;;;;;;;1.17;93.31;100535.22;5015740;28;20049;-87
2020/12/09 10:48:47;;;;;;;53.43;27.87;;;;;;;1.23;93.79;100537.94;5016206;28;20083;-86
2020/12/09 10:51:15;;;;;;;48.10;26.77;;;;;;;1.30;94.14;100539.78;5023832;28;20049;-87
2020/12/09 10:53:41;;;;;;;57.17;27.83;;;;;;;1.23;92.37;100535.34;4997816;28;20041;-87
2020/12/09 10:56:07;;;;;;;50.23;27.27;;;;;;;1.30;92.44;100537.19;4998644;28;20064;-87
2020/12/09 10:58:33;;;;;;;52.77;26.97;;;;;;;1.23;92.03;100535.34;5014641;28;20041;-86
2020/12/09 11:00:59;;;;;;;49.17;27.20;;;;;;;1.33;91.94;100524.19;5012977;28;20037;-87
2020/12/09 11:03:26;;;;;;;56.93;27.87;;;;;;;1.34;91.66;100536.34;5010772;28;20051;-86
2020/12/09 11:05:52;;;;;;;49.87;26.80;;;;;;;1.31;91.90;100525.91;5016959;28;20048;-87
2020/12/09 11:08:18;;;;;;;49.43;26.93;;;;;;;1.34;91.79;100515.53;4997480;28;20045;-88
2020/12/09 11:10:44;;;;;;;50.27;27.63;;;;;;;1.39;91.83;100521.69;5015714;28;20127;-89
2020/12/09 11:13:11;;;;;;;48.13;27.07;;;;;;;1.32;91.19;100518.13;5018519;28;20045;-88
2020/12/09 11:15:37;;;;;;;51.50;26.03;;;;;;;1.40;91.72;100524.31;5015907;28;20501;-88
2020/12/09 11:18:03;;;;;;;51.37;27.87;;;;;;;1.41;91.86;100528.66;5013382;28;20493;-87